createdAt,value
2022-11-07T00:00:40.103Z,7.16
2022-11-07T00:01:40.202Z,7.10
2022-11-07T00:02:40.101Z,7.04
2022-11-07T00:03:40.113Z,7.00
2022-11-07T00:04:40.062Z,7.00
2022-11-07T00:05:40.132Z,7.02
2022-11-07T00:06:40.031Z,7.03
2022-11-07T00:07:40.111Z,7.00
2022-11-07T00:08:40.002Z,6.98
2022-11-07T00:09:40.059Z,6.97
2022-11-07T00:10:39.973Z,6.99
2022-11-07T00:11:40.071Z,7.01
2022-11-07T00:12:39.943Z,7.04
2022-11-07T00:13:40.042Z,7.06
2022-11-07T00:14:39.911Z,7.04
2022-11-07T00:15:40.001Z,7.02
2022-11-07T00:16:39.892Z,6.98
2022-11-07T00:17:39.911Z,6.93
2022-11-07T00:18:39.860Z,6.88
2022-11-07T00:19:39.981Z,6.82
2022-11-07T00:20:39.833Z,6.76
2022-11-07T00:21:40.051Z,6.67
2022-11-07T00:22:39.810Z,6.57
2022-11-07T00:23:39.854Z,6.47
2022-11-07T00:24:39.780Z,6.39
2022-11-07T00:25:39.823Z,6.33
2022-11-07T00:26:39.760Z,6.32
2022-11-07T00:27:39.865Z,6.31
2022-11-07T00:28:39.729Z,6.29
2022-11-07T00:29:39.790Z,6.23
2022-11-07T00:30:39.701Z,6.17
2022-11-07T00:31:39.761Z,6.09
2022-11-07T00:32:39.679Z,6.02
2022-11-07T00:33:39.721Z,5.96
2022-11-07T00:34:39.651Z,5.89
2022-11-07T00:35:39.732Z,5.82
2022-11-07T00:36:39.619Z,5.78
2022-11-07T00:37:39.701Z,5.74
2022-11-07T00:38:39.597Z,5.69
2022-11-07T00:39:39.666Z,5.64
2022-11-07T00:40:39.570Z,5.59
2022-11-07T00:41:39.576Z,5.53
2022-11-07T00:42:39.553Z,5.47
2022-11-07T00:43:39.650Z,5.42
2022-11-07T00:44:39.520Z,5.39
2022-11-07T00:45:39.606Z,5.34
2022-11-07T00:46:39.488Z,5.32
2022-11-07T00:47:39.520Z,5.29
2022-11-07T00:48:39.468Z,5.25
2022-11-07T00:49:39.589Z,5.22
2022-11-07T00:50:39.438Z,5.19
2022-11-07T00:51:39.439Z,5.17
2022-11-07T00:52:39.415Z,5.14
2022-11-07T00:53:39.459Z,5.11
2022-11-07T00:54:39.381Z,5.07
2022-11-07T00:55:39.428Z,5.05
2022-11-07T00:56:39.366Z,5.05
2022-11-07T00:57:39.386Z,5.04
2022-11-07T00:58:39.339Z,5.02
2022-11-07T00:59:39.399Z,4.99
2022-11-07T01:00:39.308Z,4.96
2022-11-07T01:01:39.470Z,4.93
2022-11-07T01:02:39.393Z,4.90
2022-11-07T01:03:39.328Z,4.89
2022-11-07T01:04:39.250Z,4.88
2022-11-07T01:05:39.338Z,4.88
2022-11-07T01:06:39.220Z,4.86
2022-11-07T01:07:39.307Z,4.85
2022-11-07T01:08:39.199Z,4.82
2022-11-07T01:09:39.273Z,4.78
2022-11-07T01:10:39.170Z,4.74
2022-11-07T01:11:40.200Z,4.70
2022-11-07T01:12:39.147Z,4.67
2022-11-07T01:13:43.447Z,4.63
2022-11-07T01:14:39.120Z,4.60
2022-11-07T01:15:39.206Z,4.58
2022-11-07T01:16:39.094Z,4.56
2022-11-07T01:17:39.117Z,4.54
2022-11-07T01:18:39.067Z,4.50
2022-11-07T01:19:39.186Z,4.49
2022-11-07T01:20:39.037Z,4.52
2022-11-07T01:21:39.047Z,4.57
2022-11-07T01:22:39.015Z,4.60
2022-11-07T01:23:39.065Z,4.61
2022-11-07T01:24:38.989Z,4.58
2022-11-07T01:25:39.027Z,4.53
2022-11-07T01:26:38.957Z,4.49
2022-11-07T01:27:38.988Z,4.45
2022-11-07T01:28:38.933Z,4.44
2022-11-07T01:29:39.003Z,4.48
2022-11-07T01:30:38.905Z,4.50
2022-11-07T01:31:38.977Z,4.50
2022-11-07T01:32:38.876Z,4.49
2022-11-07T01:33:38.934Z,4.48
2022-11-07T01:34:38.858Z,4.45
2022-11-07T01:35:38.944Z,4.42
2022-11-07T01:36:38.826Z,4.37
2022-11-07T01:37:38.926Z,4.33
2022-11-07T01:38:38.796Z,4.29
2022-11-07T01:39:38.867Z,4.26
2022-11-07T01:40:38.775Z,4.24
2022-11-07T01:41:39.804Z,4.22
2022-11-07T01:42:38.747Z,4.21
2022-11-07T01:43:38.853Z,4.19
2022-11-07T01:44:38.725Z,4.16
2022-11-07T01:45:38.805Z,4.12
2022-11-07T01:46:38.699Z,4.12
2022-11-07T01:47:38.725Z,4.12
2022-11-07T01:48:38.663Z,4.14
2022-11-07T01:49:38.794Z,4.16
2022-11-07T01:50:38.644Z,4.16
2022-11-07T01:51:38.650Z,4.15
2022-11-07T01:52:38.613Z,4.14
2022-11-07T01:53:38.664Z,4.16
2022-11-07T01:54:38.586Z,4.18
2022-11-07T01:55:38.626Z,4.21
2022-11-07T01:56:38.554Z,4.21
2022-11-07T01:57:38.585Z,4.19
2022-11-07T01:58:38.535Z,4.16
2022-11-07T01:59:39.624Z,4.16
2022-11-07T02:00:38.506Z,4.19
2022-11-07T02:01:38.705Z,4.20
2022-11-07T02:02:38.702Z,4.19
2022-11-07T02:03:38.533Z,4.18
2022-11-07T02:04:38.444Z,4.19
2022-11-07T02:05:38.542Z,4.20
2022-11-07T02:06:38.424Z,4.22
2022-11-07T02:07:38.513Z,4.22
2022-11-07T02:08:38.402Z,4.22
2022-11-07T02:09:38.476Z,4.21
2022-11-07T02:10:38.364Z,4.20
2022-11-07T02:11:38.381Z,4.17
2022-11-07T02:12:38.382Z,4.16
2022-11-07T02:13:38.452Z,4.19
2022-11-07T02:14:38.319Z,4.20
2022-11-07T02:15:38.413Z,4.22
2022-11-07T02:16:38.294Z,4.22
2022-11-07T02:17:38.323Z,4.22
2022-11-07T02:18:38.262Z,4.21
2022-11-07T02:19:38.397Z,4.20
2022-11-07T02:20:38.232Z,4.18
2022-11-07T02:21:38.251Z,4.18
2022-11-07T02:22:38.231Z,4.18
2022-11-07T02:23:38.268Z,4.16
2022-11-07T02:24:38.181Z,4.14
2022-11-07T02:25:38.231Z,4.12
2022-11-07T02:26:38.161Z,4.11
2022-11-07T02:27:38.192Z,4.11
2022-11-07T02:28:38.131Z,4.12
2022-11-07T02:29:38.210Z,4.13
2022-11-07T02:30:38.101Z,4.14
2022-11-07T02:31:38.185Z,4.13
2022-11-07T02:32:38.079Z,4.12
2022-11-07T02:33:38.132Z,4.12
2022-11-07T02:34:38.055Z,4.11
2022-11-07T02:35:38.169Z,4.10
2022-11-07T02:36:38.030Z,4.10
2022-11-07T02:37:38.117Z,4.09
2022-11-07T02:38:37.999Z,4.09
2022-11-07T02:39:38.081Z,4.10
2022-11-07T02:40:37.970Z,4.10
2022-11-07T02:41:37.991Z,4.08
2022-11-07T02:42:37.940Z,4.06
2022-11-07T02:43:38.062Z,4.06
2022-11-07T02:44:37.919Z,4.06
2022-11-07T02:45:38.020Z,4.07
2022-11-07T02:46:37.903Z,4.06
2022-11-07T02:47:38.954Z,4.05
2022-11-07T02:48:37.863Z,4.04
2022-11-07T02:49:37.999Z,4.04
2022-11-07T02:50:37.844Z,4.03
2022-11-07T02:51:37.858Z,4.01
2022-11-07T02:52:37.818Z,4.00
2022-11-07T02:53:38.902Z,3.99
2022-11-07T02:54:37.788Z,3.98
2022-11-07T02:55:37.838Z,4.00
2022-11-07T02:56:37.758Z,4.01
2022-11-07T02:57:37.797Z,4.02
2022-11-07T02:58:37.733Z,4.00
2022-11-07T02:59:37.817Z,3.97
2022-11-07T03:00:37.708Z,3.94
2022-11-07T03:01:37.834Z,3.93
2022-11-07T03:02:37.876Z,3.93
2022-11-07T03:03:37.747Z,3.91
2022-11-07T03:04:37.658Z,3.89
2022-11-07T03:05:37.757Z,3.88
2022-11-07T03:06:37.627Z,3.91
2022-11-07T03:07:37.717Z,3.91
2022-11-07T03:08:37.605Z,3.90
2022-11-07T03:09:37.676Z,3.90
2022-11-07T03:10:37.576Z,3.92
2022-11-07T03:11:37.594Z,3.94
2022-11-07T03:12:37.566Z,3.99
2022-11-07T03:13:38.586Z,4.03
2022-11-07T03:14:37.573Z,4.04
2022-11-07T03:15:37.619Z,4.05
2022-11-07T03:16:37.494Z,4.08
2022-11-07T03:17:37.535Z,4.10
2022-11-07T03:18:37.466Z,4.12
2022-11-07T03:19:37.505Z,4.14
2022-11-07T03:20:37.438Z,4.15
2022-11-07T03:21:37.456Z,4.15
2022-11-07T03:22:37.416Z,4.15
2022-11-07T03:23:37.475Z,4.14
2022-11-07T03:24:37.394Z,4.14
2022-11-07T03:25:37.437Z,4.14
2022-11-07T03:26:37.365Z,4.14
2022-11-07T03:27:37.417Z,4.17
2022-11-07T03:28:37.335Z,4.21
2022-11-07T03:29:37.415Z,4.24
2022-11-07T03:30:37.306Z,4.27
2022-11-07T03:31:37.393Z,4.29
2022-11-07T03:32:37.286Z,4.29
2022-11-07T03:33:37.348Z,4.30
2022-11-07T03:34:37.254Z,4.34
2022-11-07T03:35:37.254Z,4.37
2022-11-07T03:36:37.234Z,4.41
2022-11-07T03:37:37.324Z,4.41
2022-11-07T03:38:37.207Z,4.41
2022-11-07T03:39:37.281Z,4.40
2022-11-07T03:40:37.170Z,4.40
2022-11-07T03:41:37.195Z,4.40
2022-11-07T03:42:37.180Z,4.37
2022-11-07T03:43:38.185Z,4.35
2022-11-07T03:44:37.123Z,4.35
2022-11-07T03:45:38.166Z,4.37
2022-11-07T03:46:37.093Z,4.36
2022-11-07T03:47:37.134Z,4.37
2022-11-07T03:48:37.074Z,4.36
2022-11-07T03:49:37.103Z,4.36
2022-11-07T03:50:37.044Z,4.39
2022-11-07T03:51:37.063Z,4.41
2022-11-07T03:52:37.013Z,4.42
2022-11-07T03:53:37.082Z,4.45
2022-11-07T03:54:36.993Z,4.51
2022-11-07T03:55:37.043Z,4.54
2022-11-07T03:56:36.959Z,4.55
2022-11-07T03:57:37.002Z,4.58
2022-11-07T03:58:36.933Z,4.59
2022-11-07T03:59:37.024Z,4.62
2022-11-07T04:00:36.902Z,4.65
2022-11-07T04:01:37.138Z,4.69
2022-11-07T04:02:37.119Z,4.72
2022-11-07T04:03:36.942Z,4.73
2022-11-07T04:04:36.853Z,4.70
2022-11-07T04:05:36.861Z,4.68
2022-11-07T04:06:36.832Z,4.68
2022-11-07T04:07:36.933Z,4.69
2022-11-07T04:08:36.805Z,4.70
2022-11-07T04:09:36.910Z,4.71
2022-11-07T04:10:36.772Z,4.71
2022-11-07T04:11:36.801Z,4.71
2022-11-07T04:12:36.751Z,4.72
2022-11-07T04:13:36.872Z,4.73
2022-11-07T04:14:36.723Z,4.73
2022-11-07T04:15:36.731Z,4.74
2022-11-07T04:16:36.696Z,4.75
2022-11-07T04:17:36.741Z,4.78
2022-11-07T04:18:36.680Z,4.81
2022-11-07T04:19:36.708Z,4.83
2022-11-07T04:20:36.641Z,4.84
2022-11-07T04:21:36.670Z,4.86
2022-11-07T04:22:36.610Z,4.87
2022-11-07T04:23:36.687Z,4.89
2022-11-07T04:24:40.183Z,4.90
2022-11-07T04:25:37.597Z,4.90
2022-11-07T04:26:36.600Z,4.89
2022-11-07T04:27:36.548Z,4.87
2022-11-07T04:28:36.626Z,4.86
2022-11-07T04:29:36.522Z,4.86
2022-11-07T04:30:36.531Z,4.86
2022-11-07T04:31:36.520Z,4.85
2022-11-07T04:32:36.546Z,4.86
2022-11-07T04:33:36.472Z,4.88
2022-11-07T04:34:36.560Z,4.92
2022-11-07T04:35:36.439Z,4.95
2022-11-07T04:36:36.470Z,4.98
2022-11-07T04:37:36.429Z,5.01
2022-11-07T04:38:36.488Z,5.04
2022-11-07T04:39:36.388Z,5.07
2022-11-07T04:40:36.398Z,5.09
2022-11-07T04:41:36.361Z,5.13
2022-11-07T04:42:36.414Z,5.18
2022-11-07T04:43:36.357Z,5.22
2022-11-07T04:44:36.427Z,5.25
2022-11-07T04:45:36.301Z,5.26
2022-11-07T04:46:36.341Z,5.27
2022-11-07T04:47:40.143Z,5.31
2022-11-07T04:48:36.267Z,5.35
2022-11-07T04:49:36.307Z,5.39
2022-11-07T04:50:36.237Z,5.42
2022-11-07T04:51:36.270Z,5.46
2022-11-07T04:52:36.217Z,5.49
2022-11-07T04:53:36.286Z,5.50
2022-11-07T04:54:36.187Z,5.50
2022-11-07T04:55:36.258Z,5.52
2022-11-07T04:56:36.176Z,5.54
2022-11-07T04:57:36.219Z,5.55
2022-11-07T04:58:36.126Z,5.61
2022-11-07T04:59:36.226Z,5.75
2022-11-07T05:00:36.219Z,5.95
2022-11-07T05:01:36.355Z,6.16
2022-11-07T05:02:36.120Z,6.38
2022-11-07T05:03:41.269Z,6.62
2022-11-07T05:04:37.057Z,6.83
2022-11-07T05:05:36.167Z,7.04
2022-11-07T05:06:36.027Z,7.24
2022-11-07T05:07:36.148Z,7.43
2022-11-07T05:08:36.004Z,7.59
2022-11-07T05:09:36.096Z,7.74
2022-11-07T05:10:35.977Z,7.88
2022-11-07T05:11:36.010Z,7.99
2022-11-07T05:12:35.945Z,8.09
2022-11-07T05:13:36.074Z,8.17
2022-11-07T05:14:35.923Z,8.24
2022-11-07T05:15:35.934Z,8.31
2022-11-07T05:16:35.895Z,8.35
2022-11-07T05:17:36.975Z,8.37
2022-11-07T05:18:35.875Z,8.37
2022-11-07T05:19:35.924Z,8.37
2022-11-07T05:20:35.844Z,8.36
2022-11-07T05:21:35.875Z,8.37
2022-11-07T05:22:35.814Z,8.36
2022-11-07T05:23:35.887Z,8.35
2022-11-07T05:24:35.785Z,8.34
2022-11-07T05:25:35.867Z,8.30
2022-11-07T05:26:35.762Z,8.24
2022-11-07T05:27:35.819Z,8.16
2022-11-07T05:28:39.497Z,8.08
2022-11-07T05:29:35.725Z,7.99
2022-11-07T05:30:35.734Z,7.90
2022-11-07T05:31:35.724Z,7.81
2022-11-07T05:32:35.751Z,7.74
2022-11-07T05:33:35.738Z,7.68
2022-11-07T05:34:35.764Z,7.64
2022-11-07T05:35:35.641Z,7.59
2022-11-07T05:36:35.674Z,7.53
2022-11-07T05:37:35.643Z,7.47
2022-11-07T05:38:35.703Z,7.42
2022-11-07T05:39:35.587Z,7.36
2022-11-07T05:40:35.604Z,7.32
2022-11-07T05:41:35.564Z,7.29
2022-11-07T05:42:35.624Z,7.26
2022-11-07T05:43:35.554Z,7.22
2022-11-07T05:44:35.633Z,7.20
2022-11-07T05:45:35.506Z,7.17
2022-11-07T05:46:36.574Z,7.15
2022-11-07T05:47:37.601Z,7.14
2022-11-07T05:48:35.570Z,7.12
2022-11-07T05:49:35.474Z,7.08
2022-11-07T05:50:35.478Z,7.07
2022-11-07T05:51:35.440Z,7.06
2022-11-07T05:52:35.529Z,7.06
2022-11-07T05:53:35.491Z,7.04
2022-11-07T05:54:35.401Z,7.02
2022-11-07T05:55:35.406Z,7.02
2022-11-07T05:56:35.415Z,7.01
2022-11-07T05:57:35.351Z,6.99
2022-11-07T05:58:35.443Z,6.98
2022-11-07T05:59:35.330Z,6.99
2022-11-07T06:00:35.344Z,6.98
2022-11-07T06:01:35.417Z,6.96
2022-11-07T06:02:35.417Z,6.96
2022-11-07T06:03:35.264Z,6.97
2022-11-07T06:04:37.363Z,6.97
2022-11-07T06:05:35.277Z,6.96
2022-11-07T06:06:35.282Z,6.96
2022-11-07T06:07:35.241Z,6.95
2022-11-07T06:08:35.301Z,6.96
2022-11-07T06:09:35.182Z,6.96
2022-11-07T06:10:36.233Z,6.96
2022-11-07T06:11:35.154Z,6.95
2022-11-07T06:12:35.223Z,6.94
2022-11-07T06:13:35.152Z,6.93
2022-11-07T06:14:35.134Z,6.92
2022-11-07T06:15:35.104Z,6.92
2022-11-07T06:16:35.750Z,6.92
2022-11-07T06:17:35.073Z,6.92
2022-11-07T06:18:38.992Z,6.92
2022-11-07T06:19:36.090Z,6.93
2022-11-07T06:20:35.071Z,6.94
2022-11-07T06:21:35.882Z,6.95
2022-11-07T06:22:36.119Z,6.96
2022-11-07T06:23:35.002Z,6.96
2022-11-07T06:24:35.155Z,6.97
2022-11-07T06:25:35.011Z,6.97
2022-11-07T06:26:35.020Z,6.96
2022-11-07T06:27:34.970Z,6.96
2022-11-07T06:28:35.043Z,6.95
2022-11-07T06:29:34.920Z,6.96
2022-11-07T06:30:34.972Z,6.96
2022-11-07T06:31:34.923Z,6.95
2022-11-07T06:32:34.960Z,6.95
2022-11-07T06:33:34.867Z,6.96
2022-11-07T06:34:34.871Z,6.96
2022-11-07T06:35:34.840Z,6.96
2022-11-07T06:36:34.898Z,6.97
2022-11-07T06:37:34.832Z,6.97
2022-11-07T06:38:34.914Z,6.98
2022-11-07T06:39:34.790Z,6.99
2022-11-07T06:40:34.812Z,6.99
2022-11-07T06:41:34.869Z,7.00
2022-11-07T06:42:34.830Z,7.00
2022-11-07T06:43:36.560Z,7.00
2022-11-07T06:44:34.841Z,7.00
2022-11-07T06:45:34.700Z,7.01
2022-11-07T06:46:34.750Z,7.02
2022-11-07T06:47:34.689Z,7.02
2022-11-07T06:48:34.789Z,7.03
2022-11-07T06:49:34.700Z,7.03
2022-11-07T06:50:34.689Z,7.03
2022-11-07T06:51:34.632Z,7.03
2022-11-07T06:52:34.691Z,7.05
2022-11-07T06:53:34.601Z,7.06
2022-11-07T06:54:34.800Z,7.05
2022-11-07T06:55:34.595Z,7.05
2022-11-07T06:56:34.639Z,7.05
2022-11-07T06:57:34.539Z,7.06
2022-11-07T06:58:34.650Z,7.07
2022-11-07T06:59:34.512Z,7.09
2022-11-07T07:00:34.621Z,7.10
2022-11-07T07:01:34.774Z,7.10
2022-11-07T07:02:57.276Z,7.11
2022-11-07T07:03:35.466Z,7.12
2022-11-07T07:04:34.479Z,7.13
2022-11-07T07:05:34.442Z,7.15
2022-11-07T07:06:34.491Z,7.17
2022-11-07T07:07:34.441Z,7.18
2022-11-07T07:08:34.519Z,7.19
2022-11-07T07:09:34.378Z,7.21
2022-11-07T07:10:34.652Z,7.24
2022-11-07T07:11:39.590Z,7.27
2022-11-07T07:12:34.935Z,7.28
2022-11-07T07:13:35.979Z,7.28
2022-11-07T07:14:34.319Z,7.27
2022-11-07T07:15:49.808Z,7.28
2022-11-07T07:16:35.289Z,7.29
2022-11-07T07:17:34.390Z,7.32
2022-11-07T07:18:34.277Z,7.35
2022-11-07T07:19:34.340Z,7.39
2022-11-07T07:20:37.482Z,7.42
2022-11-07T07:21:36.621Z,7.45
2022-11-07T07:22:36.177Z,7.45
2022-11-07T07:23:34.339Z,7.45
2022-11-07T07:24:35.008Z,7.45
2022-11-07T07:25:34.738Z,7.46
2022-11-07T07:26:34.932Z,7.48
2022-11-07T07:27:34.245Z,7.52
2022-11-07T07:28:34.140Z,7.56
2022-11-07T07:29:34.148Z,7.59
2022-11-07T07:30:34.111Z,7.62
2022-11-07T07:31:34.231Z,7.63
2022-11-07T07:32:34.087Z,7.66
2022-11-07T07:33:34.190Z,7.68
2022-11-07T07:34:34.470Z,7.69
2022-11-07T07:35:34.122Z,7.70
2022-11-07T07:36:34.028Z,7.70
2022-11-07T07:37:34.159Z,7.69
2022-11-07T07:38:34.007Z,7.69
2022-11-07T07:39:34.026Z,7.69
2022-11-07T07:40:33.967Z,7.72
2022-11-07T07:41:55.025Z,7.76
2022-11-07T07:42:33.957Z,7.80
2022-11-07T07:43:33.988Z,7.82
2022-11-07T07:44:33.917Z,7.85
2022-11-07T07:45:33.973Z,7.88
2022-11-07T07:46:33.890Z,7.91
2022-11-07T07:47:33.973Z,7.94
2022-11-07T07:48:33.948Z,7.97
2022-11-07T07:49:35.396Z,8.00
2022-11-07T07:50:33.957Z,8.02
2022-11-07T07:51:35.894Z,8.05
2022-11-07T07:52:33.808Z,8.07
2022-11-07T07:53:33.807Z,8.10
2022-11-07T07:54:33.802Z,8.13
2022-11-07T07:55:33.901Z,8.15
2022-11-07T07:56:34.073Z,8.15
2022-11-07T07:57:34.159Z,8.14
2022-11-07T07:58:34.752Z,8.16
2022-11-07T07:59:34.939Z,8.20
2022-11-07T08:00:34.406Z,8.24
2022-11-07T08:01:34.579Z,8.27
2022-11-07T08:02:34.837Z,8.28
2022-11-07T08:03:57.674Z,8.29
2022-11-07T08:04:55.717Z,8.31
2022-11-07T08:05:33.863Z,8.33
2022-11-07T08:06:37.357Z,8.34
2022-11-07T08:07:34.018Z,8.33
2022-11-07T08:08:38.081Z,8.31
2022-11-07T08:09:33.770Z,8.30
2022-11-07T08:10:42.029Z,8.32
2022-11-07T08:11:35.027Z,8.34
2022-11-07T08:12:33.646Z,8.37
2022-11-07T08:13:35.822Z,8.38
2022-11-07T08:14:33.561Z,8.40
2022-11-07T08:15:33.510Z,8.43
2022-11-07T08:16:33.572Z,8.44
2022-11-07T08:17:33.484Z,8.45
2022-11-07T08:18:33.495Z,8.45
2022-11-07T08:19:33.476Z,8.47
2022-11-07T08:20:33.496Z,8.49
2022-11-07T08:21:33.406Z,8.51
2022-11-07T08:22:33.515Z,8.52
2022-11-07T08:23:33.418Z,8.53
2022-11-07T08:24:33.819Z,8.55
2022-11-07T08:25:33.438Z,8.58
2022-11-07T08:26:33.438Z,8.60
2022-11-07T08:27:33.343Z,8.62
2022-11-07T08:28:34.386Z,8.63
2022-11-07T08:29:33.319Z,8.65
2022-11-07T08:30:33.375Z,8.65
2022-11-07T08:31:33.346Z,8.64
2022-11-07T08:32:33.385Z,8.63
2022-11-07T08:33:33.317Z,8.62
2022-11-07T08:34:33.291Z,8.63
2022-11-07T08:35:35.771Z,8.64
2022-11-07T08:36:34.235Z,8.65
2022-11-07T08:37:33.314Z,8.65
2022-11-07T08:38:33.202Z,8.67
2022-11-07T08:39:33.227Z,8.69
2022-11-07T08:40:33.156Z,8.71
2022-11-07T08:41:33.234Z,8.73
2022-11-07T08:42:33.156Z,8.74
2022-11-07T08:43:33.155Z,8.74
2022-11-07T08:44:33.134Z,8.74
2022-11-07T08:45:33.162Z,8.76
2022-11-07T08:46:33.075Z,8.77
2022-11-07T08:47:33.185Z,8.79
2022-11-07T08:48:33.086Z,8.82
2022-11-07T08:49:33.100Z,8.82
2022-11-07T08:50:33.026Z,8.81
2022-11-07T08:51:33.117Z,8.82
2022-11-07T08:52:32.994Z,8.83
2022-11-07T08:53:33.014Z,8.87
2022-11-07T08:54:32.994Z,8.91
2022-11-07T08:55:33.034Z,8.96
2022-11-07T08:56:32.945Z,8.97
2022-11-07T08:57:33.067Z,8.97
2022-11-07T08:58:32.934Z,8.99
2022-11-07T08:59:33.985Z,9.00
2022-11-07T09:00:32.915Z,9.01
2022-11-07T09:01:33.104Z,9.00
2022-11-07T09:03:23.871Z,9.01
2022-11-07T09:03:55.091Z,9.02
2022-11-07T09:04:33.861Z,9.05
2022-11-07T09:05:33.637Z,9.07
2022-11-07T09:06:32.857Z,9.10
2022-11-07T09:07:33.032Z,9.13
2022-11-07T09:08:32.796Z,9.12
2022-11-07T09:09:33.868Z,9.12
2022-11-07T09:10:32.784Z,9.11
2022-11-07T09:11:32.845Z,9.13
2022-11-07T09:12:32.754Z,9.14
2022-11-07T09:13:33.795Z,9.17
2022-11-07T09:14:32.712Z,9.21
2022-11-07T09:15:32.776Z,9.22
2022-11-07T09:16:32.684Z,9.22
2022-11-07T09:17:32.786Z,9.22
2022-11-07T09:18:32.704Z,9.22
2022-11-07T09:19:32.717Z,9.21
2022-11-07T09:20:32.687Z,9.22
2022-11-07T09:21:34.717Z,9.24
2022-11-07T09:22:32.612Z,9.26
2022-11-07T09:23:34.745Z,9.26
2022-11-07T09:24:32.596Z,9.27
2022-11-07T09:25:33.657Z,9.30
2022-11-07T09:26:32.545Z,9.36
2022-11-07T09:27:32.664Z,9.40
2022-11-07T09:28:32.544Z,9.43
2022-11-07T09:29:39.176Z,9.43
2022-11-07T09:30:32.825Z,9.45
2022-11-07T09:31:32.585Z,9.47
2022-11-07T09:32:45.058Z,9.49
2022-11-07T09:33:33.464Z,9.50
2022-11-07T09:34:32.505Z,9.49
2022-11-07T09:35:32.435Z,9.47
2022-11-07T09:36:32.565Z,9.45
2022-11-07T09:37:32.420Z,9.42
2022-11-07T09:38:32.504Z,9.42
2022-11-07T09:39:32.382Z,9.44
2022-11-07T09:40:32.963Z,9.47
2022-11-07T09:41:32.354Z,9.49
2022-11-07T09:42:34.455Z,9.51
2022-11-07T09:43:32.623Z,9.52
2022-11-07T09:44:36.530Z,9.53
2022-11-07T09:45:33.296Z,9.54
2022-11-07T09:46:32.392Z,9.55
2022-11-07T09:47:32.274Z,9.57
2022-11-07T09:48:32.355Z,9.57
2022-11-07T09:49:32.244Z,9.57
2022-11-07T09:50:32.305Z,9.58
2022-11-07T09:51:32.213Z,9.59
2022-11-07T09:52:32.325Z,9.60
2022-11-07T09:53:32.371Z,9.62
2022-11-07T09:54:32.285Z,9.63
2022-11-07T09:55:32.164Z,9.64
2022-11-07T09:56:33.278Z,9.65
2022-11-07T09:57:32.161Z,9.66
2022-11-07T09:58:32.163Z,9.67
2022-11-07T09:59:32.113Z,9.69
2022-11-07T10:00:32.261Z,9.67
2022-11-07T10:01:32.214Z,9.65
2022-11-07T10:02:32.268Z,9.63
2022-11-07T10:03:32.062Z,9.63
2022-11-07T10:04:32.114Z,9.64
2022-11-07T10:05:32.042Z,9.65
2022-11-07T10:06:32.073Z,9.65
2022-11-07T10:07:32.023Z,9.66
2022-11-07T10:08:32.043Z,9.67
2022-11-07T10:09:31.985Z,9.70
2022-11-07T10:10:32.080Z,9.74
2022-11-07T10:11:31.955Z,9.76
2022-11-07T10:12:32.013Z,9.79
2022-11-07T10:13:31.943Z,9.81
2022-11-07T10:14:32.994Z,9.83
2022-11-07T10:15:32.022Z,9.82
2022-11-07T10:16:33.126Z,9.81
2022-11-07T10:17:31.928Z,9.81
2022-11-07T10:18:32.118Z,9.83
2022-11-07T10:19:31.914Z,9.86
2022-11-07T10:20:31.975Z,9.90
2022-11-07T10:21:39.549Z,9.94
2022-11-07T10:22:32.864Z,9.99
2022-11-07T10:23:31.959Z,10.02
2022-11-07T10:24:31.979Z,10.05
2022-11-07T10:25:31.983Z,10.08
2022-11-07T10:26:31.954Z,10.11
2022-11-07T10:27:33.089Z,10.14
2022-11-07T10:28:31.878Z,10.16
2022-11-07T10:29:31.820Z,10.19
2022-11-07T10:30:31.859Z,10.21
2022-11-07T10:31:31.937Z,10.27
2022-11-07T10:32:31.787Z,10.32
2022-11-07T10:33:31.803Z,10.38
2022-11-07T10:34:31.736Z,10.46
2022-11-07T10:35:31.857Z,10.55
2022-11-07T10:36:31.706Z,10.65
2022-11-07T10:37:31.785Z,10.74
2022-11-07T10:38:31.663Z,10.83
2022-11-07T10:39:31.798Z,10.92
2022-11-07T10:40:31.780Z,10.99
2022-11-07T10:41:31.820Z,11.06
2022-11-07T10:42:31.692Z,11.15
2022-11-07T10:43:31.758Z,11.23
2022-11-07T10:44:31.614Z,11.28
2022-11-07T10:45:32.711Z,11.32
2022-11-07T10:46:31.559Z,11.36
2022-11-07T10:47:31.760Z,11.40
2022-11-07T10:48:31.618Z,11.47
2022-11-07T10:49:31.591Z,11.53
2022-11-07T10:50:31.503Z,11.59
2022-11-07T10:51:31.698Z,11.64
2022-11-07T10:52:31.474Z,11.70
2022-11-07T10:53:31.533Z,11.76
2022-11-07T10:54:31.572Z,11.83
2022-11-07T10:55:31.477Z,11.89
2022-11-07T10:56:31.509Z,11.94
2022-11-07T10:57:31.452Z,11.96
2022-11-07T10:58:31.392Z,12.01
2022-11-07T10:59:35.896Z,12.05
2022-11-07T11:00:32.632Z,12.11
2022-11-07T11:01:31.556Z,12.18
2022-11-07T11:02:31.303Z,12.24
2022-11-07T11:03:43.147Z,12.27
2022-11-07T11:04:32.458Z,12.29
2022-11-07T11:05:31.451Z,12.30
2022-11-07T11:06:31.483Z,12.33
2022-11-07T11:07:31.424Z,12.37
2022-11-07T11:08:31.280Z,12.44
2022-11-07T11:09:32.440Z,12.52
2022-11-07T11:10:31.334Z,12.59
2022-11-07T11:11:31.317Z,12.68
2022-11-07T11:12:34.101Z,12.75
2022-11-07T11:13:31.299Z,12.83
2022-11-07T11:14:31.182Z,12.89
2022-11-07T11:15:35.543Z,12.98
2022-11-07T11:16:31.326Z,13.03
2022-11-07T11:17:31.361Z,13.09
2022-11-07T11:18:31.243Z,13.15
2022-11-07T11:19:31.151Z,13.21
2022-11-07T11:20:31.166Z,13.25
2022-11-07T11:21:31.202Z,13.30
2022-11-07T11:22:31.117Z,13.35
2022-11-07T11:23:31.105Z,13.42
2022-11-07T11:24:31.236Z,13.49
2022-11-07T11:25:31.123Z,13.56
2022-11-07T11:26:31.004Z,13.64
2022-11-07T11:27:31.017Z,13.72
2022-11-07T11:28:31.030Z,13.81
2022-11-07T11:29:36.665Z,13.88
2022-11-07T11:30:32.144Z,13.95
2022-11-07T11:31:31.129Z,14.02
2022-11-07T11:32:30.935Z,14.09
2022-11-07T11:33:31.165Z,14.17
2022-11-07T11:34:31.088Z,14.26
2022-11-07T11:35:36.341Z,14.33
2022-11-07T11:36:31.899Z,14.40
2022-11-07T11:37:30.899Z,14.46
2022-11-07T11:38:30.906Z,14.52
2022-11-07T11:39:31.024Z,14.57
2022-11-07T11:40:31.018Z,14.63
2022-11-07T11:41:30.943Z,14.70
2022-11-07T11:42:30.888Z,14.75
2022-11-07T11:43:31.039Z,14.82
2022-11-07T11:44:30.872Z,14.87
2022-11-07T11:45:30.876Z,14.90
2022-11-07T11:46:30.760Z,14.92
2022-11-07T11:47:34.554Z,14.90
2022-11-07T11:48:30.782Z,14.90
2022-11-07T11:49:30.873Z,14.92
2022-11-07T11:50:30.745Z,14.95
2022-11-07T11:51:30.871Z,14.98
2022-11-07T11:52:30.723Z,15.01
2022-11-07T11:53:30.755Z,15.05
2022-11-07T11:54:30.855Z,15.10
2022-11-07T11:55:30.772Z,15.15
2022-11-07T11:56:30.659Z,15.19
2022-11-07T11:57:30.851Z,15.21
2022-11-07T11:58:30.623Z,15.23
2022-11-07T11:59:31.792Z,15.26
2022-11-07T12:00:30.808Z,15.29
2022-11-07T12:01:30.710Z,15.30
2022-11-07T12:02:30.770Z,15.25
2022-11-07T12:03:30.743Z,15.21
2022-11-07T12:04:30.480Z,15.14
2022-11-07T12:05:30.713Z,15.10
2022-11-07T12:06:30.539Z,15.11
2022-11-07T12:07:30.652Z,15.15
2022-11-07T12:08:30.440Z,15.18
2022-11-07T12:09:30.581Z,15.18
2022-11-07T12:10:30.557Z,15.17
2022-11-07T12:11:30.649Z,15.13
2022-11-07T12:12:30.460Z,15.07
2022-11-07T12:13:30.442Z,14.98
2022-11-07T12:14:30.469Z,14.92
2022-11-07T12:15:30.484Z,14.92
2022-11-07T12:16:30.398Z,14.97
2022-11-07T12:17:31.440Z,15.03
2022-11-07T12:18:30.615Z,15.13
2022-11-07T12:19:30.431Z,15.21
2022-11-07T12:20:30.258Z,15.28
2022-11-07T12:21:30.379Z,15.35
2022-11-07T12:22:30.388Z,15.41
2022-11-07T12:23:30.333Z,15.49
2022-11-07T12:24:30.345Z,15.56
2022-11-07T12:25:30.293Z,15.61
2022-11-07T12:26:30.245Z,15.65
2022-11-07T12:27:30.201Z,15.65
2022-11-07T12:28:30.416Z,15.65
2022-11-07T12:29:30.399Z,15.61
2022-11-07T12:30:30.214Z,15.55
2022-11-07T12:31:30.273Z,15.48
2022-11-07T12:32:30.206Z,15.39
2022-11-07T12:33:30.415Z,15.29
2022-11-07T12:34:30.163Z,15.21
2022-11-07T12:35:30.210Z,15.14
2022-11-07T12:36:30.128Z,15.07
2022-11-07T12:37:30.247Z,15.01
2022-11-07T12:38:30.030Z,14.94
2022-11-07T12:39:30.177Z,14.88
2022-11-07T12:40:30.041Z,14.85
2022-11-07T12:41:30.099Z,14.84
2022-11-07T12:42:30.123Z,14.82
2022-11-07T12:43:30.167Z,14.82
2022-11-07T12:44:30.036Z,14.83
2022-11-07T12:45:31.171Z,14.86
2022-11-07T12:46:29.903Z,14.89
2022-11-07T12:47:30.243Z,14.92
2022-11-07T12:48:30.265Z,14.93
2022-11-07T12:49:29.984Z,14.92
2022-11-07T12:50:29.954Z,14.93
2022-11-07T12:51:30.082Z,14.96
2022-11-07T12:52:29.878Z,15.00
2022-11-07T12:53:30.932Z,15.02
2022-11-07T12:54:30.000Z,15.05
2022-11-07T12:55:30.830Z,15.07
2022-11-07T12:56:29.861Z,15.07
2022-11-07T12:57:30.915Z,15.08
2022-11-07T12:58:29.782Z,15.10
2022-11-07T12:59:29.940Z,15.14
2022-11-07T13:00:30.580Z,15.19
2022-11-07T13:01:30.167Z,15.22
2022-11-07T13:02:29.814Z,15.25
2022-11-07T13:03:29.739Z,15.27
2022-11-07T13:04:29.626Z,15.27
2022-11-07T13:05:29.749Z,15.28
2022-11-07T13:06:29.642Z,15.29
2022-11-07T13:07:29.558Z,15.29
2022-11-07T13:08:34.638Z,15.30
2022-11-07T13:09:30.529Z,15.31
2022-11-07T13:10:29.579Z,15.30
2022-11-07T13:11:29.516Z,15.26
2022-11-07T13:12:29.638Z,15.22